Terminal Aerodrome Forecast
Issued by NWS

Home | Current Version | Previous Version | Text Only | Print | Product List | Glossary On
Versions: 1 2 3 4 5 6 7 8 9 10 11 12 13 14 15 16 17 18 19 20 21 22 23 24 25 26 27
000
FTUS44 KFWD 290858 AAA
TAFAFW
TAF AMD
KAFW 290858Z 2909/3006 16016G26KT P6SM BKN020 BKN025 OVC180
     FM291800 19017G27KT P6SM VCTS BKN030CB
      TEMPO 2919/2923 3SM TSRA OVC020CB
     FM292300 32020KT 6SM -RA VCTS OVC025CB
     FM300300 32020KT P6SM VCSH OVC030=

USA.gov is the U.S. government's official web portal to all federal, state and local government web resources and services.